Time;durP1;ratioP1;P1;durP2;ratioP2;P2;SDS_P1;SDS_P2;PMS_P1;PMS_P2;Temp;Humidity;BMP_temperature;BMP_pressure;BME280_temperature;BME280_humidity;BME280_pressure;Samples;Min_cycle;Max_cycle;Signal;HPM_P1;HPM_P2
2023/05/25 00:01:03;;;;;;;16.80;11.83;;;27.90;96.80;;;;;;1950916;71;21124;-83
2023/05/25 00:03:35;;;;;;;15.98;12.13;;;27.90;96.90;;;;;;1955480;71;21158;-85
2023/05/25 00:06:07;;;;;;;15.20;11.63;;;28.00;96.90;;;;;;1906285;74;21142;-84
2023/05/25 00:08:41;;;;;;;15.72;11.63;;;28.00;96.90;;;;;;1955515;71;21610;-83
2023/05/25 00:11:12;;;;;;;15.72;11.68;;;28.00;96.90;;;;;;1959919;71;21568;-83
2023/05/25 00:13:44;;;;;;;14.73;11.50;;;28.00;97.10;;;;;;1955584;72;21108;-84
2023/05/25 00:16:16;;;;;;;19.75;11.43;;;28.00;96.90;;;;;;1953529;72;21046;-83
2023/05/25 00:18:47;;;;;;;15.05;12.70;;;28.10;97.20;;;;;;1948483;72;22181;-85
2023/05/25 00:21:19;;;;;;;18.05;13.18;;;28.10;96.90;;;;;;1945315;72;21215;-84
2023/05/25 00:23:50;;;;;;;18.10;11.85;;;28.10;97.20;;;;;;1954625;72;22341;-85
2023/05/25 00:26:22;;;;;;;18.85;12.40;;;28.20;97.10;;;;;;1953869;72;21122;-76
2023/05/25 00:28:53;;;;;;;18.10;12.93;;;28.20;97.10;;;;;;1947598;71;21426;-77
2023/05/25 00:31:26;;;;;;;28.10;14.83;;;28.30;97.20;;;;;;1953301;71;21145;-77
2023/05/25 00:33:57;;;;;;;19.00;13.30;;;28.30;97.20;;;;;;1959099;71;21138;-78
2023/05/25 00:36:28;;;;;;;19.42;13.68;;;28.30;97.20;;;;;;1954862;71;21211;-76
2023/05/25 00:39:00;;;;;;;21.55;14.58;;;28.30;97.30;;;;;;1943376;72;21108;-78
2023/05/25 00:41:33;;;;;;;22.00;14.93;;;28.30;97.30;;;;;;1944552;72;21677;-76
2023/05/25 00:44:04;;;;;;;23.30;13.05;;;28.30;97.30;;;;;;1944917;72;21832;-75
2023/05/25 00:46:36;;;;;;;21.75;13.95;;;28.30;97.30;;;;;;1949159;71;21183;-78
2023/05/25 00:49:08;;;;;;;22.85;17.98;;;28.40;97.40;;;;;;1940902;72;21231;-78
2023/05/25 00:51:40;;;;;;;17.42;14.00;;;28.30;97.50;;;;;;1950238;72;21580;-77
2023/05/25 00:54:13;;;;;;;20.62;13.78;;;28.40;97.50;;;;;;1954451;72;21620;-78
2023/05/25 00:56:49;;;;;;;20.30;14.60;;;28.40;97.50;;;;;;1954954;71;21261;-79
2023/05/25 00:59:30;;;;;;;24.37;15.50;;;28.40;97.50;;;;;;1954169;72;21149;-78
2023/05/25 01:02:05;;;;;;;22.05;15.88;;;28.50;97.30;;;;;;1888969;74;21074;-77
2023/05/25 01:04:38;;;;;;;22.42;16.42;;;28.60;97.30;;;;;;1946695;72;21096;-77
2023/05/25 01:07:11;;;;;;;19.02;15.03;;;28.60;97.30;;;;;;1952239;71;21536;-79
2023/05/25 01:09:45;;;;;;;24.07;14.73;;;28.60;97.30;;;;;;1941254;72;21768;-76
2023/05/25 01:19:13;;;;;;;37.65;18.98;;;28.70;97.40;;;;;;1865527;72;22032;-77
2023/05/25 01:21:49;;;;;;;20.52;16.97;;;28.70;97.30;;;;;;1958176;72;21199;-79
2023/05/25 01:24:26;;;;;;;22.55;17.80;;;28.70;97.40;;;;;;1916911;72;21481;-75
2023/05/25 01:27:12;;;;;;;31.05;19.15;;;28.80;97.50;;;;;;1961488;72;21159;-79
2023/05/25 01:29:45;;;;;;;34.05;17.90;;;28.80;97.60;;;;;;1958695;72;21101;-76
2023/05/25 01:32:21;;;;;;;43.80;19.50;;;28.90;97.50;;;;;;1946348;71;21725;-77
2023/05/25 01:34:57;;;;;;;29.87;17.62;;;29.00;97.30;;;;;;1953008;72;21235;-77
2023/05/25 01:37:28;;;;;;;;;;;29.10;97.30;;;;;;1952767;72;21140;-83
2023/05/25 01:40:03;;;;;;;28.65;18.77;;;29.10;97.20;;;;;;1943425;72;20208;-79
2023/05/25 01:42:33;;;;;;;23.40;18.82;;;29.20;97.00;;;;;;1951248;71;21183;-76
2023/05/25 01:45:13;;;;;;;25.43;18.67;;;29.30;96.70;;;;;;1949194;72;21222;-77
2023/05/25 01:47:58;;;;;;;;;;;29.40;96.70;;;;;;1961352;71;21168;-82
2023/05/25 01:50:34;;;;;;;20.08;17.25;;;29.50;96.40;;;;;;1934716;72;20305;-77
2023/05/25 01:53:08;;;;;;;23.40;18.45;;;29.60;96.40;;;;;;1892565;73;21137;-80
2023/05/25 01:55:41;;;;;;;23.65;18.60;;;29.70;96.20;;;;;;1936669;72;21196;-79
2023/05/25 01:58:15;;;;;;;22.87;18.92;;;29.70;96.00;;;;;;1954009;72;21634;-80
2023/05/25 02:00:48;;;;;;;26.68;20.72;;;29.70;96.20;;;;;;1943253;73;21576;-79
2023/05/25 02:03:21;;;;;;;32.90;20.43;;;29.70;96.10;;;;;;1930334;72;21132;-81
2023/05/25 02:05:53;;;;;;;26.87;17.85;;;29.80;96.20;;;;;;1956502;71;21065;-78
2023/05/25 02:08:25;;;;;;;26.62;20.08;;;29.80;96.30;;;;;;1947030;72;21210;-78
2023/05/25 02:10:56;;;;;;;36.55;21.62;;;29.90;95.90;;;;;;1947773;72;21143;-76
2023/05/25 02:13:28;;;;;;;30.17;19.98;;;29.90;96.10;;;;;;1958493;72;21232;-77
2023/05/25 02:16:00;;;;;;;24.90;20.15;;;30.10;95.80;;;;;;1947861;72;21120;-78
2023/05/25 02:18:31;;;;;;;23.42;19.55;;;30.10;95.40;;;;;;1887381;75;21199;-78
2023/05/25 02:21:03;;;;;;;29.75;19.57;;;30.10;95.50;;;;;;1963783;72;21197;-80
2023/05/25 02:23:34;;;;;;;28.67;19.92;;;30.20;95.50;;;;;;1951865;72;21080;-79
2023/05/25 02:26:05;;;;;;;26.12;19.23;;;30.40;95.30;;;;;;1965900;71;21738;-83
2023/05/25 02:28:37;;;;;;;29.25;19.62;;;30.40;94.90;;;;;;1952277;72;21138;-79
2023/05/25 02:31:08;;;;;;;27.87;18.87;;;30.50;94.80;;;;;;1960587;72;21100;-83
2023/05/25 02:33:59;;;;;;;33.10;20.50;;;30.60;94.80;;;;;;1951406;72;21645;-78
2023/05/25 02:36:31;;;;;;;23.32;19.48;;;30.70;94.50;;;;;;1839472;76;21626;-79
2023/05/25 02:39:03;;;;;;;35.15;20.57;;;30.70;94.60;;;;;;1799946;78;21253;-81
2023/05/25 02:41:34;;;;;;;28.73;19.50;;;30.70;94.40;;;;;;1855934;75;21211;-79
2023/05/25 02:44:06;;;;;;;48.80;24.07;;;30.70;94.40;;;;;;1849001;75;21188;-80
2023/05/25 02:46:38;;;;;;;42.98;20.48;;;30.70;94.40;;;;;;1848913;75;21125;-79
2023/05/25 02:49:10;;;;;;;35.08;20.45;;;30.70;94.50;;;;;;1831016;75;21254;-80
2023/05/25 02:51:41;;;;;;;28.30;19.42;;;30.80;94.30;;;;;;1817561;76;21158;-78
2023/05/25 02:54:12;;;;;;;35.20;20.77;;;30.80;94.00;;;;;;1840770;75;21211;-80
2023/05/25 02:56:44;;;;;;;23.20;18.92;;;30.90;94.50;;;;;;1836850;75;21142;-76
2023/05/25 02:59:15;;;;;;;28.57;19.92;;;30.80;93.80;;;;;;1828815;76;21079;-77
2023/05/25 03:01:47;;;;;;;23.32;19.27;;;30.90;94.10;;;;;;1833905;75;21193;-77
2023/05/25 03:04:18;;;;;;;29.67;19.90;;;31.00;93.90;;;;;;1842185;76;21157;-77
2023/05/25 03:06:50;;;;;;;27.58;19.52;;;31.00;93.80;;;;;;1826827;76;21652;-81
2023/05/25 03:09:21;;;;;;;26.23;19.37;;;31.10;93.60;;;;;;1827001;76;21226;-79
2023/05/25 03:11:53;;;;;;;27.02;19.42;;;31.10;93.40;;;;;;1832352;76;21159;-79
2023/05/25 03:14:31;;;;;;;24.43;20.02;;;31.10;93.60;;;;;;1846516;75;21260;-80
2023/05/25 03:17:03;;;;;;;26.05;19.02;;;31.10;93.60;;;;;;1848587;76;21146;-79
2023/05/25 03:19:37;;;;;;;29.72;20.65;;;31.10;93.80;;;;;;1841925;76;21219;-79
2023/05/25 03:22:08;;;;;;;30.95;21.73;;;31.10;94.00;;;;;;1815868;77;21193;-79
2023/05/25 03:24:40;;;;;;;36.45;19.98;;;31.00;93.90;;;;;;1841389;75;21553;-75
2023/05/25 03:27:11;;;;;;;32.20;21.30;;;30.90;94.20;;;;;;1823069;77;21163;-77
2023/05/25 03:29:43;;;;;;;27.73;20.40;;;30.80;94.30;;;;;;1848191;75;21589;-78
2023/05/25 03:32:14;;;;;;;34.75;21.50;;;30.80;94.30;;;;;;1847180;76;21566;-79
2023/05/25 03:34:46;;;;;;;27.25;20.05;;;30.90;94.20;;;;;;1852537;76;21149;-79
2023/05/25 03:37:17;;;;;;;24.45;19.05;;;31.00;94.10;;;;;;1808866;77;21165;-76
2023/05/25 03:39:48;;;;;;;30.50;19.90;;;31.00;93.90;;;;;;1844468;76;21165;-78
2023/05/25 03:42:20;;;;;;;30.27;21.68;;;31.10;93.50;;;;;;1842563;76;21642;-78
2023/05/25 03:44:51;;;;;;;28.87;20.77;;;31.20;93.50;;;;;;1838361;76;21178;-79
2023/05/25 03:47:23;;;;;;;23.00;19.37;;;31.30;93.40;;;;;;1849125;76;21139;-81
2023/05/25 03:49:55;;;;;;;26.77;20.68;;;31.40;93.30;;;;;;1828977;76;21573;-78
2023/05/25 03:52:26;;;;;;;29.87;20.72;;;31.40;93.00;;;;;;1851479;76;21328;-82
2023/05/25 03:54:57;;;;;;;33.45;21.37;;;31.30;93.10;;;;;;1816289;77;21183;-78
2023/05/25 03:57:29;;;;;;;33.23;21.33;;;31.30;93.30;;;;;;1870191;75;21135;-80
2023/05/25 04:00:00;;;;;;;35.65;20.70;;;31.20;93.30;;;;;;1841365;76;21171;-78
2023/05/25 04:02:33;;;;;;;26.85;20.85;;;31.20;93.60;;;;;;1836115;76;21176;-77
2023/05/25 04:05:05;;;;;;;25.52;20.15;;;31.20;93.50;;;;;;1816609;76;21209;-79
2023/05/25 04:07:37;;;;;;;29.35;19.95;;;31.20;93.40;;;;;;1847114;76;21208;-78
2023/05/25 04:10:09;;;;;;;28.05;20.72;;;31.30;93.70;;;;;;1841038;76;21170;-75
2023/05/25 04:12:40;;;;;;;29.02;19.67;;;31.40;93.20;;;;;;1853634;76;21653;-76
2023/05/25 04:15:13;;;;;;;22.27;19.25;;;31.60;92.90;;;;;;1840129;75;21190;-79
2023/05/25 04:17:45;;;;;;;26.37;19.80;;;31.70;92.60;;;;;;1829309;76;21175;-79
2023/05/25 04:20:16;;;;;;;28.25;19.20;;;31.90;92.30;;;;;;1841793;76;21112;-78
2023/05/25 04:22:48;;;;;;;22.87;19.57;;;32.10;92.10;;;;;;1866892;75;21775;-79
2023/05/25 04:25:20;;;;;;;24.92;19.40;;;32.20;91.50;;;;;;1812134;77;21248;-76
2023/05/25 04:27:52;;;;;;;24.32;20.45;;;32.30;91.60;;;;;;1815259;77;21217;-79
2023/05/25 04:30:24;;;;;;;25.25;18.87;;;32.20;91.80;;;;;;1843846;76;21315;-78
2023/05/25 04:33:01;;;;;;;22.32;18.52;;;32.20;91.80;;;;;;1854815;75;21258;-78
2023/05/25 04:35:30;;;;;;;23.45;19.12;;;32.20;91.90;;;;;;1836733;75;21157;-78
2023/05/25 04:38:01;;;;;;;23.85;17.70;;;32.30;91.60;;;;;;1832170;76;21115;-78
2023/05/25 04:40:34;;;;;;;32.85;20.92;;;32.40;91.50;;;;;;1825642;75;21205;-79
2023/05/25 04:43:05;;;;;;;30.52;18.70;;;32.40;91.50;;;;;;1851287;75;21262;-78
2023/05/25 04:45:37;;;;;;;28.83;18.02;;;32.50;91.40;;;;;;1843745;76;21137;-77
2023/05/25 04:48:08;;;;;;;31.70;18.35;;;32.50;91.00;;;;;;1812885;77;21793;-79
2023/05/25 04:50:40;;;;;;;20.70;17.42;;;32.60;90.40;;;;;;1813607;77;21152;-78
2023/05/25 04:53:12;;;;;;;23.32;18.40;;;32.70;90.70;;;;;;1850735;76;21118;-78
2023/05/25 04:58:21;;;;;;;19.45;16.93;;;32.90;88.80;;;;;;1827684;75;21186;-80
2023/05/25 05:00:57;;;;;;;19.73;17.57;;;32.80;90.10;;;;;;1812877;76;21225;-79
2023/05/25 05:03:32;;;;;;;30.65;17.67;;;32.80;90.30;;;;;;1798558;77;21248;-81
2023/05/25 05:06:04;;;;;;;26.80;17.35;;;32.90;90.10;;;;;;1799389;77;21227;-80
2023/05/25 05:08:38;;;;;;;22.93;16.15;;;33.00;89.90;;;;;;1815485;77;21195;-79
2023/05/25 05:11:13;;;;;;;27.48;17.95;;;33.10;89.60;;;;;;1840834;75;21700;-78
2023/05/25 05:13:45;;;;;;;22.15;17.70;;;33.10;89.70;;;;;;1849456;76;21182;-80
2023/05/25 05:16:18;;;;;;;24.25;17.15;;;33.20;90.10;;;;;;1829048;76;21175;-77
2023/05/25 05:18:49;;;;;;;21.82;17.17;;;33.20;89.70;;;;;;1809762;76;21108;-78
2023/05/25 05:21:21;;;;;;;23.77;19.32;;;33.20;89.50;;;;;;1820957;76;21145;-77
2023/05/25 05:23:53;;;;;;;29.25;18.15;;;33.20;90.10;;;;;;1840377;75;21149;-77
2023/05/25 05:26:26;;;;;;;22.58;18.02;;;33.20;88.80;;;;;;1849494;75;21318;-76
2023/05/25 05:28:58;;;;;;;22.55;17.80;;;33.20;88.60;;;;;;1845782;76;21164;-81
2023/05/25 05:31:30;;;;;;;24.30;16.90;;;33.20;88.40;;;;;;1839164;76;21794;-78
2023/05/25 05:34:05;;;;;;;21.37;16.02;;;33.20;88.20;;;;;;1860230;76;21106;-78
2023/05/25 05:36:37;;;;;;;19.05;15.70;;;33.10;88.90;;;;;;1824671;76;21150;-75
2023/05/25 05:39:09;;;;;;;22.55;17.07;;;33.20;88.70;;;;;;1823053;75;21078;-76
2023/05/25 05:41:42;;;;;;;22.17;16.75;;;33.30;88.80;;;;;;1784731;78;21173;-77
2023/05/25 05:44:13;;;;;;;19.10;15.78;;;33.30;88.20;;;;;;1845381;76;21582;-77
2023/05/25 05:46:44;;;;;;;17.25;14.93;;;33.20;87.70;;;;;;1841573;76;21126;-78
2023/05/25 05:49:16;;;;;;;20.75;14.53;;;33.20;87.70;;;;;;1853199;77;21146;-75
2023/05/25 05:51:47;;;;;;;19.42;15.25;;;33.40;86.20;;;;;;1845946;75;21230;-79
2023/05/25 05:54:18;;;;;;;17.82;15.80;;;33.50;85.50;;;;;;1815748;75;21214;-79
2023/05/25 05:56:50;;;;;;;21.35;15.60;;;33.60;86.10;;;;;;1833781;76;21163;-81
2023/05/25 05:59:22;;;;;;;21.30;15.25;;;33.70;85.50;;;;;;1849463;76;21147;-78
2023/05/25 06:01:54;;;;;;;21.00;16.37;;;33.80;85.30;;;;;;1813659;77;21131;-77
2023/05/25 06:04:27;;;;;;;20.45;15.90;;;33.90;85.30;;;;;;1814552;77;21269;-77
2023/05/25 06:06:58;;;;;;;20.17;16.62;;;33.90;85.50;;;;;;1839008;77;21173;-78
2023/05/25 06:09:30;;;;;;;25.15;16.52;;;33.90;85.80;;;;;;1819588;76;21189;-79
2023/05/25 06:12:02;;;;;;;20.60;16.37;;;33.90;85.40;;;;;;1816885;77;21166;-80
2023/05/25 06:14:33;;;;;;;23.83;15.25;;;34.00;84.90;;;;;;1854313;75;21104;-76
2023/05/25 06:17:05;;;;;;;23.73;16.95;;;34.00;85.50;;;;;;1855187;75;21511;-78
2023/05/25 06:19:37;;;;;;;25.68;16.73;;;34.10;85.20;;;;;;1837093;75;21121;-77
2023/05/25 06:22:08;;;;;;;18.65;14.93;;;34.10;84.40;;;;;;1856443;75;21208;-79
2023/05/25 06:24:39;;;;;;;20.80;15.15;;;34.20;84.30;;;;;;1820699;77;21207;-76
2023/05/25 06:27:12;;;;;;;20.75;15.45;;;34.30;83.30;;;;;;1835524;76;21238;-80
2023/05/25 06:29:43;;;;;;;25.72;17.42;;;34.40;82.10;;;;;;1834106;76;21096;-81
2023/05/25 06:32:15;;;;;;;22.65;16.48;;;34.40;82.60;;;;;;1844887;76;21160;-83
2023/05/25 06:34:46;;;;;;;23.47;15.85;;;34.40;82.70;;;;;;1831057;76;21111;-85
2023/05/25 06:37:17;;;;;;;18.60;15.58;;;34.20;82.80;;;;;;1839449;76;21165;-77
2023/05/25 06:39:48;;;;;;;32.42;18.57;;;34.30;83.60;;;;;;1832475;76;21204;-79
2023/05/25 06:42:19;;;;;;;27.65;16.73;;;34.20;83.70;;;;;;1846456;76;21108;-77
2023/05/25 06:44:50;;;;;;;22.75;16.48;;;34.20;82.50;;;;;;1832420;77;21657;-78
2023/05/25 06:47:21;;;;;;;20.68;16.07;;;34.20;83.60;;;;;;1834273;76;21152;-79
2023/05/25 06:49:53;;;;;;;22.02;16.00;;;34.10;85.00;;;;;;1848748;75;21232;-81
2023/05/25 06:52:27;;;;;;;31.77;17.35;;;34.10;84.00;;;;;;1834810;75;21812;-76
2023/05/25 06:54:59;;;;;;;25.00;17.17;;;34.10;83.70;;;;;;1835479;75;21635;-78
2023/05/25 06:57:30;;;;;;;25.55;19.52;;;34.10;83.60;;;;;;1820768;76;21272;-80
2023/05/25 07:00:02;;;;;;;22.77;17.45;;;34.30;82.20;;;;;;1830762;76;21227;-82
2023/05/25 07:02:33;;;;;;;20.35;17.15;;;34.30;82.40;;;;;;1810373;76;21157;-83
2023/05/25 07:05:06;;;;;;;23.83;17.15;;;34.30;82.90;;;;;;1837239;76;21175;-80
2023/05/25 07:07:37;;;;;;;20.68;16.42;;;34.20;82.60;;;;;;1827633;75;21140;-80
2023/05/25 07:10:09;;;;;;;21.17;15.55;;;34.10;83.30;;;;;;1822125;77;21587;-79
2023/05/25 07:12:41;;;;;;;18.05;16.12;;;34.10;83.40;;;;;;1843298;75;21288;-86
2023/05/25 07:15:14;;;;;;;18.92;15.63;;;34.10;83.10;;;;;;1847610;76;21118;-84
2023/05/25 07:17:46;;;;;;;20.15;15.95;;;34.00;83.50;;;;;;1846310;76;21190;-82
2023/05/25 07:20:17;;;;;;;25.23;16.50;;;34.00;83.40;;;;;;1810808;77;21237;-82
2023/05/25 07:22:49;;;;;;;25.77;18.55;;;34.10;83.30;;;;;;1813855;77;21245;-81
2023/05/25 07:25:21;;;;;;;22.67;16.70;;;34.20;83.00;;;;;;1836580;76;21193;-78
2023/05/25 07:34:19;;;;;;;20.75;14.73;;;34.40;82.40;;;;;;1589281;87;21228;-83
2023/05/25 07:36:50;;;;;;;18.75;14.25;;;34.40;82.10;;;;;;1795344;76;21155;-76
2023/05/25 07:39:22;;;;;;;20.65;14.07;;;34.40;82.50;;;;;;1837250;76;21195;-79
2023/05/25 07:41:53;;;;;;;23.47;14.70;;;34.40;82.40;;;;;;1816748;77;21680;-78
2023/05/25 07:44:24;;;;;;;19.10;14.55;;;34.30;82.00;;;;;;1802495;78;21158;-83
2023/05/25 07:46:56;;;;;;;21.65;14.47;;;34.30;82.30;;;;;;1822236;76;21735;-82
2023/05/25 07:49:27;;;;;;;23.40;15.03;;;34.20;82.70;;;;;;1806763;77;21189;-79
2023/05/25 07:51:58;;;;;;;22.77;14.85;;;34.20;83.40;;;;;;1812579;77;21171;-79
2023/05/25 07:57:08;;;;;;;17.55;13.60;;;34.10;83.20;;;;;;1796487;77;21189;-80
2023/05/25 07:59:43;;;;;;;18.98;14.25;;;34.00;83.00;;;;;;1817986;77;21147;-81
2023/05/25 08:02:12;;;;;;;16.90;14.30;;;34.00;83.40;;;;;;1807484;77;21684;-81
2023/05/25 08:04:43;;;;;;;21.45;14.75;;;34.00;82.70;;;;;;1822174;76;21143;-78
2023/05/25 08:07:15;;;;;;;17.40;12.90;;;33.90;82.30;;;;;;1794328;78;22366;-81
2023/05/25 08:09:46;;;;;;;19.92;13.48;;;33.90;80.90;;;;;;1809960;78;21175;-79
2023/05/25 08:12:17;;;;;;;19.50;13.53;;;33.90;80.50;;;;;;1804980;77;21627;-79
2023/05/25 08:14:50;;;;;;;17.15;13.40;;;34.00;80.90;;;;;;1834699;77;21106;-80
2023/05/25 08:17:21;;;;;;;17.30;13.10;;;34.00;80.00;;;;;;1834303;76;21218;-81
2023/05/25 08:19:54;;;;;;;18.60;12.25;;;34.00;79.60;;;;;;1832128;75;21103;-81
2023/05/25 08:22:26;;;;;;;15.13;11.70;;;34.10;79.40;;;;;;1810048;78;21166;-79
2023/05/25 08:24:57;;;;;;;19.25;13.32;;;34.10;79.40;;;;;;1816133;77;21271;-79
2023/05/25 08:27:29;;;;;;;17.92;13.38;;;34.10;79.20;;;;;;1803022;78;21672;-78
2023/05/25 08:30:01;;;;;;;18.15;12.20;;;34.10;79.20;;;;;;1812323;77;21243;-79
2023/05/25 08:32:32;;;;;;;16.30;12.20;;;34.10;79.10;;;;;;1809175;78;21170;-81
2023/05/25 08:35:04;;;;;;;18.42;12.53;;;34.10;79.80;;;;;;1814979;77;21119;-79
2023/05/25 08:37:35;;;;;;;37.23;15.05;;;34.10;80.30;;;;;;1803162;77;21139;-82
2023/05/25 08:40:10;;;;;;;20.43;14.28;;;34.20;79.90;;;;;;1813359;77;21535;-80
2023/05/25 08:42:46;;;;;;;23.70;14.28;;;34.20;79.70;;;;;;1817999;77;21155;-82
2023/05/25 08:45:18;;;;;;;25.77;13.95;;;34.20;80.00;;;;;;1811762;77;21149;-77
2023/05/25 08:47:56;;;;;;;16.10;12.90;;;34.20;79.70;;;;;;1804623;78;21253;-81
2023/05/25 08:50:29;;;;;;;20.35;13.95;;;34.20;79.60;;;;;;1807198;77;21208;-84
2023/05/25 08:53:03;;;;;;;30.52;16.52;;;34.10;80.00;;;;;;1806520;77;21124;-82
2023/05/25 08:55:36;;;;;;;18.30;13.58;;;34.20;80.50;;;;;;1800563;77;21208;-77
2023/05/25 08:58:18;;;;;;;21.17;13.18;;;34.30;79.80;;;;;;1815664;77;21138;-81
2023/05/25 09:00:53;;;;;;;18.32;13.40;;;34.20;79.70;;;;;;1821903;77;21448;-80
2023/05/25 09:03:24;;;;;;;15.95;13.75;;;34.20;79.80;;;;;;1835967;76;21167;-80
2023/05/25 09:05:57;;;;;;;23.70;13.65;;;34.20;80.20;;;;;;1849011;76;21229;-79
2023/05/25 09:08:30;;;;;;;18.42;14.05;;;34.20;80.80;;;;;;1800990;77;21247;-85
2023/05/25 09:11:02;;;;;;;36.83;16.80;;;34.30;80.60;;;;;;1820925;76;21127;-79
2023/05/25 09:13:34;;;;;;;23.42;14.55;;;34.20;80.70;;;;;;1819911;76;21207;-85
2023/05/25 09:16:06;;;;;;;19.98;16.12;;;34.10;81.60;;;;;;1807831;77;21228;-82
2023/05/25 09:18:37;;;;;;;22.25;14.43;;;34.00;82.40;;;;;;1822493;75;21191;-78
2023/05/25 09:21:08;;;;;;;21.95;14.13;;;33.90;82.00;;;;;;1834379;76;21077;-84
2023/05/25 09:23:40;;;;;;;17.07;12.68;;;33.70;82.70;;;;;;1851239;76;21201;-78
2023/05/25 09:26:12;;;;;;;23.60;12.60;;;33.50;83.20;;;;;;1850032;76;22185;-78
2023/05/25 09:28:48;;;;;;;13.98;10.78;;;33.40;83.90;;;;;;1831757;76;21115;-75
2023/05/25 09:31:24;;;;;;;15.20;10.18;;;33.20;84.60;;;;;;1828238;76;21259;-80
2023/05/25 09:33:58;;;;;;;22.95;10.25;;;33.00;85.00;;;;;;1852385;75;21127;-78
2023/05/25 09:36:29;;;;;;;14.68;7.65;;;32.60;86.80;;;;;;1842216;75;21243;-77
2023/05/25 09:39:00;;;;;;;13.43;8.00;;;32.40;86.90;;;;;;1810846;76;21238;-79
2023/05/25 09:41:35;;;;;;;10.55;8.63;;;32.10;85.50;;;;;;1822667;77;21182;-78
2023/05/25 09:44:11;;;;;;;15.53;8.83;;;31.80;86.70;;;;;;1838338;76;21095;-79
2023/05/25 09:46:51;;;;;;;13.48;8.08;;;31.70;87.20;;;;;;1840464;76;21134;-74
2023/05/25 09:49:22;;;;;;;11.83;8.88;;;31.60;86.90;;;;;;1812963;77;21192;-77
2023/05/25 09:51:55;;;;;;;13.70;8.20;;;31.60;86.90;;;;;;1808380;77;21657;-79
2023/05/25 09:54:32;;;;;;;12.28;7.40;;;31.60;86.60;;;;;;1854165;75;21557;-79
2023/05/25 09:57:04;;;;;;;11.12;6.50;;;31.70;86.70;;;;;;1800120;77;21178;-76
2023/05/25 09:59:36;;;;;;;10.08;5.75;;;31.70;86.40;;;;;;1857477;75;21140;-80
2023/05/25 10:02:07;;;;;;;10.45;5.50;;;31.60;85.40;;;;;;1853657;75;21448;-76
2023/05/25 10:04:45;;;;;;;7.53;4.50;;;31.60;83.40;;;;;;1847898;75;21684;-74
2023/05/25 10:07:24;;;;;;;9.15;4.90;;;31.50;82.60;;;;;;1841473;76;21429;-73
2023/05/25 10:10:03;;;;;;;9.30;5.00;;;31.40;81.90;;;;;;1844326;75;21616;-74
2023/05/25 10:12:36;;;;;;;10.48;4.92;;;31.30;82.10;;;;;;1798716;78;21165;-73
2023/05/25 10:15:09;;;;;;;8.18;4.97;;;31.30;82.20;;;;;;1838430;75;21664;-75
2023/05/25 10:17:52;;;;;;;7.15;5.05;;;31.30;82.40;;;;;;1836993;75;21839;-73
2023/05/25 10:20:25;;;;;;;8.63;4.72;;;31.30;82.30;;;;;;1824406;78;21168;-74
2023/05/25 10:23:11;;;;;;;6.08;4.47;;;31.20;82.70;;;;;;1800450;76;21140;-77
2023/05/25 10:25:51;;;;;;;8.03;4.30;;;31.30;82.20;;;;;;1820592;75;21255;-76
2023/05/25 10:28:31;;;;;;;6.15;3.72;;;31.30;81.60;;;;;;1836311;76;21235;-77
2023/05/25 10:31:02;;;;;;;7.62;4.53;;;31.30;81.50;;;;;;1820729;78;21236;-77
2023/05/25 10:33:37;;;;;;;8.20;4.55;;;31.30;81.00;;;;;;1834288;76;21100;-77
2023/05/25 10:36:09;;;;;;;7.28;4.83;;;31.20;81.20;;;;;;1836667;77;21740;-76
2023/05/25 10:38:43;;;;;;;7.05;4.50;;;31.20;81.50;;;;;;1799692;78;21651;-75
2023/05/25 10:41:16;;;;;;;8.35;4.60;;;31.20;81.60;;;;;;1844743;77;21097;-75
2023/05/25 10:43:48;;;;;;;7.08;4.78;;;31.10;81.70;;;;;;1799669;78;21174;-74
2023/05/25 10:46:21;;;;;;;8.58;4.45;;;31.10;82.20;;;;;;1820957;77;21530;-75
2023/05/25 10:48:52;;;;;;;5.60;4.33;;;31.10;82.30;;;;;;1844960;77;21254;-73
2023/05/25 10:51:25;;;;;;;4.92;4.30;;;31.00;82.10;;;;;;1845358;76;21099;-75
2023/05/25 10:54:04;;;;;;;7.12;3.90;;;30.90;82.60;;;;;;1800661;77;21272;-73
2023/05/25 10:56:35;;;;;;;12.18;6.75;;;30.90;83.70;;;;;;1833036;76;21138;-75
2023/05/25 10:59:15;;;;;;;11.33;6.50;;;30.80;84.50;;;;;;1849269;75;21109;-76
2023/05/25 11:01:50;;;;;;;10.85;6.97;;;30.70;85.10;;;;;;1813211;77;21119;-75
2023/05/25 11:04:24;;;;;;;11.15;6.45;;;30.60;85.10;;;;;;1831250;76;21222;-76
2023/05/25 11:07:06;;;;;;;9.10;5.95;;;30.60;85.60;;;;;;1846820;76;21330;-75
2023/05/25 11:09:40;;;;;;;9.98;6.55;;;30.60;85.70;;;;;;1805842;77;21260;-77
2023/05/25 11:12:28;;;;;;;8.03;5.35;;;30.60;85.90;;;;;;1812307;78;21284;-84
2023/05/25 11:18:16;;;;;;;8.73;5.22;;;30.50;86.40;;;;;;1800274;77;21175;-85
2023/05/25 11:20:52;;;;;;;8.00;5.15;;;30.40;86.50;;;;;;1811357;77;21204;-86
2023/05/25 11:23:30;;;;;;;7.05;4.78;;;30.30;86.70;;;;;;1801105;76;21178;-87
2023/05/25 11:26:06;;;;;;;8.15;4.80;;;30.30;86.40;;;;;;1828216;76;21095;-86
2023/05/25 11:28:39;;;;;;;9.35;4.92;;;30.30;86.40;;;;;;1832947;75;21079;-86
2023/05/25 11:31:12;;;;;;;13.95;6.35;;;30.30;86.80;;;;;;1829511;76;21114;-86
2023/05/25 11:36:19;;;;;;;10.63;6.65;;;30.20;87.10;;;;;;1823574;76;21094;-87
2023/05/25 11:38:55;;;;;;;11.63;7.50;;;30.20;87.40;;;;;;1838663;76;21860;-86
2023/05/25 11:41:28;;;;;;;13.88;9.18;;;30.20;87.30;;;;;;1830159;76;21255;-86
2023/05/25 11:44:06;;;;;;;17.05;10.58;;;30.20;87.40;;;;;;1807099;77;21255;-86
2023/05/25 11:46:37;;;;;;;13.32;9.50;;;30.20;87.90;;;;;;1809920;77;21879;-85
2023/05/25 11:49:09;;;;;;;16.52;10.58;;;30.20;88.20;;;;;;1801242;77;21069;-87
2023/05/25 11:51:46;;;;;;;14.10;9.35;;;30.20;88.80;;;;;;1806326;77;21154;-86
2023/05/25 11:54:22;;;;;;;16.57;9.93;;;30.30;89.50;;;;;;1817243;76;21151;-85
2023/05/25 11:56:58;;;;;;;17.17;11.88;;;30.30;90.00;;;;;;1817541;77;21544;-86
2023/05/25 11:59:29;;;;;;;17.48;11.63;;;30.30;90.10;;;;;;1816253;77;21131;-85
2023/05/25 12:02:02;;;;;;;15.08;10.60;;;30.30;90.20;;;;;;1820525;77;21650;-87
2023/05/25 12:04:34;;;;;;;17.70;11.97;;;30.30;90.30;;;;;;1836293;76;21142;-86
2023/05/25 12:07:07;;;;;;;14.58;12.70;;;30.30;90.70;;;;;;1849300;75;21186;-86
2023/05/25 12:09:38;;;;;;;22.15;13.83;;;30.30;90.70;;;;;;1817665;77;21237;-85
2023/05/25 12:12:09;;;;;;;22.87;14.98;;;30.40;91.00;;;;;;1821309;77;21112;-84
2023/05/25 12:14:48;;;;;;;17.95;14.45;;;30.40;91.00;;;;;;1818909;76;21539;-86
2023/05/25 12:17:21;;;;;;;21.02;15.20;;;30.40;91.10;;;;;;1804564;76;21225;-86
2023/05/25 12:19:52;;;;;;;17.67;14.95;;;30.40;91.30;;;;;;1832191;77;21299;-86
2023/05/25 12:22:23;;;;;;;26.15;15.80;;;30.40;91.20;;;;;;1823772;76;21198;-87
2023/05/25 12:24:55;;;;;;;21.37;16.35;;;30.40;91.40;;;;;;1824379;77;21197;-85
2023/05/25 12:27:26;;;;;;;19.48;16.15;;;30.40;91.50;;;;;;1837190;76;21605;-88
2023/05/25 12:29:59;;;;;;;19.45;16.32;;;30.30;91.20;;;;;;1809585;77;21166;-87
2023/05/25 12:32:30;;;;;;;23.57;16.05;;;30.30;91.40;;;;;;1816032;78;21111;-85
2023/05/25 12:35:05;;;;;;;21.02;15.58;;;30.40;91.40;;;;;;1863084;75;21201;-86
2023/05/25 12:37:37;;;;;;;23.00;15.95;;;30.40;91.50;;;;;;1845116;76;21175;-87
2023/05/25 12:40:13;;;;;;;21.77;15.72;;;30.40;91.70;;;;;;1824619;77;21642;-87
2023/05/25 12:42:44;;;;;;;24.98;16.10;;;30.30;92.00;;;;;;1804234;74;21133;-90
2023/05/25 12:45:16;;;;;;;22.77;16.55;;;30.30;92.10;;;;;;1860979;76;21133;-87
2023/05/25 12:47:47;;;;;;;22.13;16.67;;;30.30;92.20;;;;;;1843979;76;21166;-87
2023/05/25 12:50:19;;;;;;;21.45;16.95;;;30.30;92.50;;;;;;1831403;76;21138;-87
2023/05/25 12:52:50;;;;;;;22.87;17.32;;;30.30;92.60;;;;;;1802056;76;21086;-87
2023/05/25 12:55:29;;;;;;;22.30;18.23;;;30.30;92.60;;;;;;1845748;76;21175;-87
2023/05/25 12:58:08;;;;;;;27.55;19.67;;;30.30;92.60;;;;;;1810853;77;21254;-87
2023/05/25 13:00:40;;;;;;;25.20;18.65;;;30.20;93.10;;;;;;1840199;76;21140;-88
2023/05/25 13:03:12;;;;;;;27.87;19.77;;;30.20;93.10;;;;;;1807449;77;21499;-87
2023/05/25 13:05:45;;;;;;;26.65;20.35;;;30.20;93.40;;;;;;1851553;76;21321;-87
2023/05/25 13:08:16;;;;;;;26.35;19.95;;;30.20;93.50;;;;;;1886509;74;21235;-87
2023/05/25 13:10:50;;;;;;;28.20;19.45;;;30.20;93.70;;;;;;1860763;75;21144;-87
2023/05/25 13:13:21;;;;;;;26.65;19.50;;;30.20;93.70;;;;;;1860642;75;21159;-87
2023/05/25 13:16:01;;;;;;;23.30;19.77;;;30.20;93.80;;;;;;1840650;75;21118;-87
2023/05/25 13:18:33;;;;;;;28.45;20.17;;;30.20;93.80;;;;;;1850798;76;21615;-87
2023/05/25 13:21:05;;;;;;;24.50;19.70;;;30.20;94.10;;;;;;1865389;75;21191;-87
2023/05/25 13:23:39;;;;;;;25.75;20.10;;;30.20;94.10;;;;;;1888099;74;21122;-85